Time;durP1;ratioP1;P1;durP2;ratioP2;P2;SDS_P1;SDS_P2;PMS_P1;PMS_P2;Temp;Humidity;BMP_temperature;BMP_pressure;BME280_temperature;BME280_humidity;BME280_pressure;Samples;Min_cycle;Max_cycle;Signal;HPM_P1;HPM_P2
2023/01/15 00:00:14;;;;;;;18.30;11.43;;;3.10;99.90;;;;;;5032192;28;20076;-53
2023/01/15 00:02:40;;;;;;;17.42;10.68;;;3.20;99.90;;;;;;5030783;28;20361;-49
2023/01/15 00:05:06;;;;;;;17.58;10.40;;;3.30;99.90;;;;;;5031864;28;20031;-49
2023/01/15 00:07:31;;;;;;;17.90;10.80;;;3.30;99.90;;;;;;5032094;28;20065;-52
2023/01/15 00:09:57;;;;;;;14.02;10.10;;;3.20;99.90;;;;;;5030775;28;20053;-52
2023/01/15 00:12:23;;;;;;;18.30;11.35;;;3.20;99.90;;;;;;5031721;28;20523;-51
2023/01/15 00:14:49;;;;;;;13.90;8.95;;;3.10;99.90;;;;;;5031708;28;20108;-50
2023/01/15 00:17:14;;;;;;;11.60;8.27;;;3.10;99.90;;;;;;5031793;28;20400;-49
2023/01/15 00:19:40;;;;;;;13.77;8.43;;;3.10;99.90;;;;;;5030340;28;20051;-50
2023/01/15 00:22:06;;;;;;;13.20;8.85;;;3.10;99.90;;;;;;5031599;28;20053;-49
2023/01/15 00:30:02;;;;;;;12.20;8.30;;;3.10;99.90;;;;;;5031991;28;20024;-51
2023/01/15 00:32:28;;;;;;;11.10;8.25;;;3.00;99.90;;;;;;5031542;28;20033;-49
2023/01/15 00:34:54;;;;;;;21.55;7.78;;;3.00;99.90;;;;;;5031424;28;20080;-49
2023/01/15 00:37:20;;;;;;;13.82;8.27;;;3.00;99.90;;;;;;5031672;28;20020;-50
2023/01/15 00:39:46;;;;;;;12.80;8.68;;;2.90;99.90;;;;;;5031537;28;20148;-52
2023/01/15 00:42:12;;;;;;;14.07;8.38;;;2.90;99.90;;;;;;5031479;28;20025;-52
2023/01/15 00:44:37;;;;;;;14.23;8.65;;;2.90;99.90;;;;;;5031233;28;20075;-49
2023/01/15 00:47:03;;;;;;;10.27;7.45;;;2.90;99.90;;;;;;5031437;28;20040;-50
2023/01/15 00:49:29;;;;;;;14.10;8.60;;;2.80;99.90;;;;;;5031485;28;20108;-52
2023/01/15 00:52:19;;;;;;;11.32;7.63;;;2.70;99.90;;;;;;5031273;28;20642;-52
2023/01/15 00:54:47;;;;;;;11.07;7.63;;;2.70;99.90;;;;;;5031281;28;20083;-50
2023/01/15 00:57:12;;;;;;;14.65;8.65;;;2.60;99.90;;;;;;5030085;28;20025;-49
2023/01/15 00:59:38;;;;;;;15.98;8.20;;;2.60;99.90;;;;;;5031268;28;20490;-48
2023/01/15 01:02:04;;;;;;;10.52;7.53;;;2.60;99.90;;;;;;5031173;28;20124;-49
2023/01/15 01:04:29;;;;;;;10.88;7.65;;;2.50;99.90;;;;;;5031446;28;20056;-54
2023/01/15 01:06:55;;;;;;;9.45;7.15;;;2.50;99.90;;;;;;5031236;28;20057;-51
2023/01/15 01:09:21;;;;;;;12.63;7.40;;;2.60;99.90;;;;;;5031139;28;20033;-53
2023/01/15 01:11:48;;;;;;;8.23;6.75;;;2.70;99.90;;;;;;5030830;28;20030;-49
2023/01/15 01:14:14;;;;;;;8.98;6.70;;;2.90;99.90;;;;;;5032173;28;20103;-51
2023/01/15 01:16:41;;;;;;;9.40;7.10;;;2.90;99.90;;;;;;5034918;28;20420;-48
2023/01/15 01:19:19;;;;;;;11.02;6.57;;;2.80;99.90;;;;;;5034955;28;20040;-46
2023/01/15 01:21:46;;;;;;;14.27;6.80;;;2.70;99.90;;;;;;5032939;28;20488;-50
2023/01/15 01:24:15;;;;;;;11.02;6.88;;;2.70;99.90;;;;;;5034646;28;20030;-48
2023/01/15 01:26:45;;;;;;;18.17;6.22;;;2.70;99.90;;;;;;5034715;28;20029;-49
2023/01/15 01:29:28;;;;;;;11.30;6.55;;;2.80;99.90;;;;;;5034742;28;20037;-49
2023/01/15 01:31:54;;;;;;;9.43;6.00;;;2.70;99.90;;;;;;5034368;28;20503;-50
2023/01/15 01:34:19;;;;;;;14.63;6.03;;;2.80;99.90;;;;;;5034639;28;20029;-51
2023/01/15 01:36:45;;;;;;;8.63;6.47;;;2.70;99.90;;;;;;5034584;28;20532;-50
2023/01/15 01:39:17;;;;;;;11.75;7.20;;;2.70;99.90;;;;;;5034407;28;20380;-49
2023/01/15 01:41:44;;;;;;;9.00;6.63;;;2.70;99.90;;;;;;5034162;28;20480;-53
2023/01/15 01:44:31;;;;;;;10.23;6.55;;;2.70;99.90;;;;;;5034751;28;20029;-53
2023/01/15 01:47:04;;;;;;;12.07;6.47;;;2.70;99.90;;;;;;5034427;28;20049;-49
2023/01/15 01:49:30;;;;;;;7.95;5.68;;;2.80;99.90;;;;;;5034457;28;20022;-54
2023/01/15 01:52:01;;;;;;;10.70;6.30;;;2.80;99.90;;;;;;5034175;28;20072;-49
2023/01/15 01:54:30;;;;;;;14.18;6.25;;;2.80;99.90;;;;;;5034370;28;20040;-54
2023/01/15 01:56:56;;;;;;;8.85;6.30;;;2.80;99.90;;;;;;5034277;28;20044;-50
2023/01/15 01:59:24;;;;;;;9.27;6.15;;;2.80;99.90;;;;;;5034294;28;20022;-52
2023/01/15 02:01:50;;;;;;;7.68;6.03;;;2.80;99.90;;;;;;5033932;28;20033;-49
2023/01/15 02:04:18;;;;;;;10.35;5.88;;;2.80;99.90;;;;;;5034344;28;20415;-51
2023/01/15 02:06:44;;;;;;;11.73;5.97;;;2.80;99.90;;;;;;5032762;28;20083;-50
2023/01/15 02:09:10;;;;;;;7.53;5.05;;;2.90;99.90;;;;;;5033988;28;20033;-49
2023/01/15 02:11:36;;;;;;;9.70;5.38;;;2.90;99.90;;;;;;5032431;28;20032;-48
2023/01/15 02:14:20;;;;;;;14.75;6.20;;;3.10;99.90;;;;;;5034194;28;20061;-48
2023/01/15 02:17:02;;;;;;;6.30;5.13;;;3.20;99.90;;;;;;5033981;28;20028;-48
2023/01/15 02:20:02;;;;;;;9.52;6.32;;;3.20;99.90;;;;;;5032731;28;20460;-48
2023/01/15 02:22:36;;;;;;;8.82;5.50;;;3.20;99.90;;;;;;5013997;28;20030;-49
2023/01/15 02:25:24;;;;;;;7.72;5.57;;;3.10;99.90;;;;;;5014217;28;20044;-50
2023/01/15 02:28:23;;;;;;;6.00;5.40;;;3.20;99.90;;;;;;5013216;28;20022;-49
2023/01/15 02:30:55;;;;;;;6.38;5.05;;;3.20;99.90;;;;;;5019198;28;20029;-49
2023/01/15 02:33:29;;;;;;;8.82;5.95;;;3.20;99.90;;;;;;5033765;28;20053;-49
2023/01/15 02:35:59;;;;;;;7.47;4.78;;;3.30;99.90;;;;;;5033574;28;20025;-53
2023/01/15 02:38:30;;;;;;;10.18;6.15;;;3.40;99.90;;;;;;5033689;28;20022;-48
2023/01/15 02:40:58;;;;;;;8.48;6.55;;;3.40;99.90;;;;;;5033285;28;20683;-49
2023/01/15 02:43:28;;;;;;;6.47;4.85;;;3.40;99.90;;;;;;5033492;28;20067;-50
2023/01/15 02:45:57;;;;;;;6.88;4.85;;;3.40;99.90;;;;;;5033311;28;20164;-51
2023/01/15 02:48:28;;;;;;;12.70;5.15;;;3.50;99.90;;;;;;5033527;28;20396;-49
2023/01/15 02:51:03;;;;;;;7.40;5.25;;;3.50;99.90;;;;;;5032862;28;20021;-51
2023/01/15 02:53:30;;;;;;;7.78;4.85;;;3.50;99.90;;;;;;5033317;28;20045;-48
2023/01/15 02:56:02;;;;;;;11.25;4.72;;;3.50;99.90;;;;;;5033137;28;20022;-50
2023/01/15 02:58:35;;;;;;;8.38;4.63;;;3.60;99.90;;;;;;5033306;28;20045;-49
2023/01/15 03:01:07;;;;;;;9.82;5.32;;;3.50;99.90;;;;;;5038065;28;20071;-51
2023/01/15 03:03:41;;;;;;;7.65;5.40;;;3.60;99.90;;;;;;5033032;28;20033;-48
2023/01/15 03:06:26;;;;;;;5.35;4.28;;;3.60;99.90;;;;;;5032942;28;20082;-51
2023/01/15 03:08:52;;;;;;;6.40;4.55;;;3.70;99.90;;;;;;5032523;28;20079;-49
2023/01/15 03:11:19;;;;;;;9.70;4.30;;;3.80;99.90;;;;;;5031477;28;20472;-51
2023/01/15 03:13:51;;;;;;;10.65;4.47;;;3.70;99.90;;;;;;5032763;28;20037;-52
2023/01/15 03:16:37;;;;;;;11.95;4.95;;;3.80;99.90;;;;;;5032898;28;20021;-50
2023/01/15 03:19:17;;;;;;;5.88;4.05;;;3.80;99.90;;;;;;5032764;28;20078;-49
2023/01/15 03:22:16;;;;;;;3.60;3.00;;;3.80;99.90;;;;;;5032286;28;20349;-51
2023/01/15 03:24:50;;;;;;;6.75;4.53;;;3.90;99.90;;;;;;5020934;28;20095;-51
2023/01/15 03:27:16;;;;;;;6.55;4.22;;;4.00;99.90;;;;;;5032643;28;20021;-54
2023/01/15 03:29:45;;;;;;;4.75;4.10;;;4.00;99.90;;;;;;5032545;28;20112;-50
2023/01/15 03:32:11;;;;;;;4.90;4.18;;;4.00;99.90;;;;;;5032422;28;20525;-52
2023/01/15 03:34:51;;;;;;;7.22;4.32;;;4.00;99.90;;;;;;5031139;28;20030;-51
2023/01/15 03:37:19;;;;;;;5.18;4.00;;;4.00;99.90;;;;;;5032457;28;20083;-51
2023/01/15 03:39:45;;;;;;;7.25;5.28;;;3.90;99.90;;;;;;5032319;28;20036;-49
2023/01/15 03:42:19;;;;;;;5.30;4.03;;;3.90;99.90;;;;;;5032320;28;20528;-51
2023/01/15 03:44:57;;;;;;;;;;;4.00;99.90;;;;;;5032746;28;20049;-50
2023/01/15 03:47:39;;;;;;;5.00;4.38;;;3.90;99.90;;;;;;5032306;28;19909;-54
2023/01/15 03:50:44;;;;;;;4.90;4.50;;;3.90;99.90;;;;;;5032210;28;20026;-53
2023/01/15 03:53:13;;;;;;;7.28;4.07;;;3.80;99.90;;;;;;5032079;28;20029;-49
2023/01/15 03:56:00;;;;;;;5.95;4.70;;;3.80;99.90;;;;;;5031951;28;20013;-51
2023/01/15 03:58:28;;;;;;;6.22;4.15;;;3.80;99.90;;;;;;5031993;28;20037;-50
2023/01/15 04:00:58;;;;;;;5.90;4.68;;;3.90;99.90;;;;;;5031408;28;20066;-48
2023/01/15 04:03:27;;;;;;;5.70;4.65;;;4.00;99.90;;;;;;5030788;28;20449;-51
2023/01/15 04:05:56;;;;;;;8.27;4.93;;;4.00;99.90;;;;;;5030729;28;20025;-49
2023/01/15 04:08:23;;;;;;;6.28;4.80;;;4.00;99.90;;;;;;5031366;28;20029;-54
2023/01/15 04:10:53;;;;;;;6.32;4.00;;;3.90;99.90;;;;;;5031184;28;20025;-52
2023/01/15 04:13:19;;;;;;;7.57;4.55;;;4.00;99.90;;;;;;5031235;28;20083;-53
2023/01/15 04:15:48;;;;;;;7.07;4.03;;;4.00;99.90;;;;;;5031511;28;20029;-52
2023/01/15 04:18:14;;;;;;;6.70;4.07;;;4.20;99.90;;;;;;5031624;28;20068;-49
2023/01/15 04:20:39;;;;;;;4.03;3.58;;;4.20;99.90;;;;;;5031711;28;20025;-51
2023/01/15 04:23:05;;;;;;;7.43;4.03;;;4.20;99.90;;;;;;5031690;28;20037;-49
2023/01/15 04:25:31;;;;;;;5.45;4.05;;;4.20;99.90;;;;;;5031634;28;20431;-50
2023/01/15 04:27:56;;;;;;;8.85;5.10;;;4.20;99.90;;;;;;5031617;28;20120;-51
2023/01/15 04:30:22;;;;;;;5.03;4.53;;;4.20;99.90;;;;;;5031771;28;20101;-52
2023/01/15 04:32:49;;;;;;;5.57;3.30;;;4.10;99.90;;;;;;5031220;28;20453;-49
2023/01/15 04:35:15;;;;;;;3.67;3.35;;;4.20;99.90;;;;;;5031638;28;20025;-51
2023/01/15 04:37:41;;;;;;;4.57;3.45;;;4.20;99.90;;;;;;5031534;28;20083;-51
2023/01/15 04:44:05;;;;;;;3.55;3.25;;;4.20;99.90;;;;;;5031563;28;20587;-53
2023/01/15 04:45:43;;;;;;;5.82;3.70;;;4.30;99.90;;;;;;5030985;28;20124;-49
2023/01/15 04:48:09;;;;;;;4.97;3.45;;;4.30;99.90;;;;;;5031098;28;20044;-52
2023/01/15 04:50:35;;;;;;;3.70;3.40;;;4.40;99.90;;;;;;5033890;28;20053;-52
2023/01/15 04:53:00;;;;;;;4.38;2.45;;;4.40;99.90;;;;;;5033622;28;20026;-51
2023/01/15 04:55:26;;;;;;;3.45;2.63;;;4.40;99.90;;;;;;5035133;28;20021;-48
2023/01/15 04:57:52;;;;;;;4.10;2.97;;;4.40;99.90;;;;;;5034962;28;20648;-48
2023/01/15 05:00:18;;;;;;;8.07;3.13;;;4.40;99.90;;;;;;5034395;28;20018;-49
2023/01/15 05:02:43;;;;;;;3.85;2.83;;;4.50;99.90;;;;;;5034138;28;20038;-49
2023/01/15 05:05:09;;;;;;;4.13;2.72;;;4.50;99.90;;;;;;5033315;28;20063;-49
2023/01/15 05:07:35;;;;;;;4.65;3.40;;;4.50;99.90;;;;;;5034298;28;20033;-48
2023/01/15 05:10:01;;;;;;;12.80;4.30;;;4.50;99.90;;;;;;5033819;28;20024;-49
2023/01/15 05:12:26;;;;;;;3.65;3.03;;;4.50;99.90;;;;;;5034985;28;20030;-49
2023/01/15 05:14:52;;;;;;;4.32;2.58;;;4.50;99.90;;;;;;5034856;28;20029;-49
2023/01/15 05:17:18;;;;;;;7.38;3.33;;;4.50;99.90;;;;;;5035171;28;20040;-48
2023/01/15 05:19:43;;;;;;;6.60;3.70;;;4.50;99.90;;;;;;5034998;28;20030;-49
2023/01/15 05:22:09;;;;;;;3.53;2.88;;;4.50;99.90;;;;;;5034907;28;20037;-50
2023/01/15 05:24:35;;;;;;;5.30;3.10;;;4.40;99.90;;;;;;5034899;28;20021;-48
2023/01/15 05:27:01;;;;;;;5.97;3.15;;;4.50;99.90;;;;;;5034926;28;20461;-48
2023/01/15 05:29:27;;;;;;;7.10;3.70;;;4.50;99.90;;;;;;5034983;28;20013;-52
2023/01/15 05:31:54;;;;;;;3.80;3.38;;;4.50;99.90;;;;;;5034541;28;20532;-52
2023/01/15 05:34:20;;;;;;;5.45;4.95;;;4.60;99.90;;;;;;5034843;28;20399;-50
2023/01/15 05:36:45;;;;;;;4.65;4.25;;;4.50;99.90;;;;;;5034720;28;20076;-54
2023/01/15 05:39:11;;;;;;;4.82;4.35;;;4.50;99.90;;;;;;5034694;28;20029;-49
2023/01/15 05:41:48;;;;;;;7.28;5.20;;;4.50;99.90;;;;;;5034309;28;20018;-50
2023/01/15 05:44:22;;;;;;;3.33;2.95;;;4.50;99.90;;;;;;5033281;28;20041;-50
2023/01/15 05:46:48;;;;;;;7.35;4.50;;;4.50;99.90;;;;;;5034382;28;20041;-51
2023/01/15 05:49:17;;;;;;;4.03;3.50;;;4.50;99.90;;;;;;5034572;28;20456;-51
2023/01/15 05:51:43;;;;;;;4.57;3.38;;;4.60;99.90;;;;;;5034254;28;20040;-49
2023/01/15 05:54:18;;;;;;;4.22;3.92;;;4.50;99.90;;;;;;5034504;28;20022;-50
2023/01/15 05:56:44;;;;;;;3.80;3.50;;;4.60;99.90;;;;;;5034210;28;20066;-50
2023/01/15 05:59:11;;;;;;;3.40;3.10;;;4.50;99.90;;;;;;5032953;28;20501;-49
2023/01/15 06:01:37;;;;;;;4.47;3.75;;;4.60;99.90;;;;;;5032622;28;20048;-53
2023/01/15 06:04:04;;;;;;;4.78;3.50;;;4.50;99.90;;;;;;5032660;28;20473;-53
2023/01/15 06:06:30;;;;;;;3.55;3.22;;;4.50;99.90;;;;;;5034068;28;20361;-54
2023/01/15 06:08:56;;;;;;;4.50;3.47;;;4.40;99.90;;;;;;5033831;28;20552;-51
2023/01/15 06:11:22;;;;;;;4.28;3.53;;;4.40;99.90;;;;;;5033943;28;20025;-52
2023/01/15 06:13:48;;;;;;;5.10;3.90;;;4.40;99.90;;;;;;5033314;28;20036;-50
2023/01/15 06:16:14;;;;;;;3.72;3.33;;;4.40;99.90;;;;;;5033649;28;20104;-55
2023/01/15 06:18:40;;;;;;;4.72;2.97;;;4.40;99.90;;;;;;5032341;28;20025;-51
2023/01/15 06:21:08;;;;;;;3.20;2.78;;;4.30;99.90;;;;;;5034002;28;20436;-51
2023/01/15 06:23:37;;;;;;;5.18;3.10;;;4.40;99.90;;;;;;5033919;28;20422;-51
2023/01/15 06:26:05;;;;;;;4.18;3.40;;;4.40;99.90;;;;;;5033934;28;20421;-53
2023/01/15 06:28:31;;;;;;;4.72;3.15;;;4.50;99.90;;;;;;5033144;28;20362;-51
2023/01/15 06:30:56;;;;;;;2.88;2.67;;;4.50;99.90;;;;;;5033913;28;20046;-52
2023/01/15 06:33:22;;;;;;;3.47;3.03;;;4.50;99.90;;;;;;5033799;28;20484;-51
2023/01/15 06:35:48;;;;;;;10.65;5.75;;;4.50;99.90;;;;;;5033559;28;20026;-55
2023/01/15 06:38:13;;;;;;;5.40;4.03;;;4.60;99.90;;;;;;5033437;28;20415;-52
2023/01/15 06:40:39;;;;;;;10.20;4.55;;;4.60;99.90;;;;;;5033430;28;20052;-52
2023/01/15 06:48:50;;;;;;;5.75;5.00;;;4.60;99.90;;;;;;5013010;28;20536;-50
2023/01/15 06:51:19;;;;;;;5.05;4.53;;;4.50;99.90;;;;;;5028686;28;20174;-54
2023/01/15 06:53:45;;;;;;;4.50;3.95;;;4.50;99.90;;;;;;5033098;28;20538;-51
2023/01/15 06:56:13;;;;;;;5.82;4.78;;;4.50;99.90;;;;;;5033227;28;20029;-54
2023/01/15 06:58:40;;;;;;;4.13;3.72;;;4.40;99.90;;;;;;5032814;28;20069;-53
2023/01/15 07:01:10;;;;;;;5.65;4.15;;;4.40;99.90;;;;;;5033116;28;20678;-49
2023/01/15 07:03:36;;;;;;;6.93;4.43;;;4.30;99.90;;;;;;5032915;28;20035;-51
2023/01/15 07:06:13;;;;;;;5.43;4.25;;;4.30;99.90;;;;;;5033023;28;20022;-52
2023/01/15 07:08:39;;;;;;;7.75;6.95;;;4.20;99.90;;;;;;5032531;28;20112;-54
2023/01/15 07:11:07;;;;;;;4.22;3.83;;;4.30;99.90;;;;;;5033000;28;20120;-50
2023/01/15 07:13:34;;;;;;;5.40;4.80;;;4.40;99.90;;;;;;5032577;28;20032;-53
2023/01/15 07:16:01;;;;;;;6.32;5.30;;;4.40;99.90;;;;;;5033029;28;20032;-51
2023/01/15 07:18:28;;;;;;;5.10;4.15;;;4.40;99.90;;;;;;5032732;28;20071;-54
2023/01/15 07:20:57;;;;;;;4.95;4.05;;;4.30;99.90;;;;;;5032638;28;20042;-53
2023/01/15 07:23:25;;;;;;;5.40;3.83;;;4.40;99.90;;;;;;5032723;28;20406;-54
2023/01/15 07:25:54;;;;;;;6.30;4.80;;;4.50;99.90;;;;;;5032433;28;20100;-52
2023/01/15 07:28:21;;;;;;;6.95;5.03;;;4.50;99.90;;;;;;5032349;28;20124;-50
2023/01/15 07:30:48;;;;;;;8.10;5.00;;;4.40;99.90;;;;;;5032427;28;20104;-56
2023/01/15 07:33:13;;;;;;;6.30;5.35;;;4.40;99.90;;;;;;5032688;28;20026;-53
2023/01/15 07:35:39;;;;;;;7.55;6.68;;;4.40;99.90;;;;;;5032379;28;20022;-54
2023/01/15 07:38:05;;;;;;;15.82;11.45;;;4.50;99.90;;;;;;5032309;28;20017;-53
2023/01/15 07:40:31;;;;;;;17.77;10.32;;;4.50;99.90;;;;;;5032229;28;20443;-53
2023/01/15 07:51:41;;;;;;;15.45;9.68;;;4.60;99.90;;;;;;5032082;28;20083;-52
2023/01/15 07:54:06;;;;;;;172.07;85.20;;;4.70;99.90;;;;;;5032048;28;20508;-56
2023/01/15 07:56:32;;;;;;;79.47;38.45;;;4.70;99.90;;;;;;5030780;28;20028;-56
2023/01/15 07:58:57;;;;;;;52.50;28.52;;;4.80;99.90;;;;;;5031993;28;20428;-53
2023/01/15 08:01:23;;;;;;;31.13;17.27;;;4.80;99.90;;;;;;5034368;28;20460;-52
2023/01/15 08:03:49;;;;;;;18.13;11.98;;;4.80;99.90;;;;;;5031948;28;20112;-53
2023/01/15 08:06:14;;;;;;;31.10;19.38;;;4.80;99.90;;;;;;5032058;28;20373;-54
2023/01/15 08:08:40;;;;;;;20.23;14.63;;;4.90;99.90;;;;;;5030327;28;20625;-54
2023/01/15 08:16:35;;;;;;;10.55;6.45;;;5.00;99.90;;;;;;5012977;28;20116;-58
2023/01/15 08:19:01;;;;;;;8.90;6.75;;;5.00;99.90;;;;;;5034661;28;20063;-52
2023/01/15 08:21:27;;;;;;;8.15;5.30;;;5.10;99.90;;;;;;5047666;28;20687;-55
2023/01/15 08:23:53;;;;;;;9.30;5.90;;;5.10;99.90;;;;;;5030028;28;20737;-55
2023/01/15 08:26:18;;;;;;;10.75;6.82;;;5.10;99.90;;;;;;5029237;28;20465;-57
2023/01/15 08:28:44;;;;;;;10.63;7.78;;;5.10;99.90;;;;;;5031498;28;20026;-56
2023/01/15 08:31:10;;;;;;;23.63;16.13;;;5.10;99.90;;;;;;5031419;28;20084;-50
2023/01/15 08:33:35;;;;;;;20.45;14.55;;;5.10;99.90;;;;;;5028908;28;20026;-58
2023/01/15 08:36:01;;;;;;;16.70;11.73;;;5.20;99.90;;;;;;5037025;28;20504;-59
2023/01/15 08:38:27;;;;;;;10.73;7.93;;;5.40;99.90;;;;;;5032609;28;20032;-56
2023/01/15 08:40:59;;;;;;;12.00;7.05;;;5.40;99.90;;;;;;5035081;28;20029;-56
2023/01/15 08:43:32;;;;;;;16.83;11.50;;;5.30;99.90;;;;;;5030477;28;20071;-58
2023/01/15 08:45:59;;;;;;;30.25;18.25;;;5.40;99.90;;;;;;5030129;28;20660;-56
2023/01/15 08:48:26;;;;;;;6.65;4.93;;;5.40;99.90;;;;;;5030381;28;20029;-58
2023/01/15 08:50:52;;;;;;;6.10;4.60;;;5.40;99.90;;;;;;5031033;28;20079;-61
2023/01/15 08:53:18;;;;;;;6.05;4.65;;;5.50;99.90;;;;;;5031397;28;20385;-55
2023/01/15 08:55:48;;;;;;;8.07;4.50;;;5.50;99.90;;;;;;5030956;28;20026;-57
2023/01/15 08:58:16;;;;;;;10.57;5.00;;;5.60;99.90;;;;;;5036158;28;20057;-59
2023/01/15 09:00:49;;;;;;;6.68;4.95;;;5.60;99.90;;;;;;5038331;28;20064;-59
2023/01/15 09:03:14;;;;;;;12.70;6.90;;;5.60;99.90;;;;;;5031470;28;20033;-58
2023/01/15 09:05:40;;;;;;;5.50;4.30;;;5.60;99.90;;;;;;5029590;28;20094;-58
2023/01/15 09:08:06;;;;;;;43.92;24.48;;;5.60;99.90;;;;;;5030320;28;20030;-58
2023/01/15 09:10:33;;;;;;;6.95;5.45;;;5.60;99.90;;;;;;5029589;28;20025;-58
2023/01/15 09:13:02;;;;;;;14.68;5.85;;;5.60;99.90;;;;;;5030125;28;20025;-59
2023/01/15 09:15:30;;;;;;;10.30;5.65;;;5.60;99.90;;;;;;5041022;28;20033;-56
2023/01/15 09:17:56;;;;;;;13.45;9.57;;;5.70;99.90;;;;;;5050257;28;20603;-58
2023/01/15 09:20:22;;;;;;;8.20;6.75;;;5.70;99.90;;;;;;5048694;28;20021;-57
2023/01/15 09:22:48;;;;;;;8.05;5.90;;;5.70;99.90;;;;;;5030709;28;20049;-55
2023/01/15 09:25:18;;;;;;;16.50;8.65;;;5.70;99.90;;;;;;5030888;28;20132;-58
2023/01/15 09:27:45;;;;;;;7.28;6.38;;;5.70;99.90;;;;;;5030923;28;20034;-58
2023/01/15 09:30:21;;;;;;;6.13;5.25;;;5.70;99.90;;;;;;5031069;28;20022;-59
2023/01/15 09:32:47;;;;;;;8.65;7.45;;;5.90;99.90;;;;;;5030775;28;20028;-58
2023/01/15 09:35:13;;;;;;;9.00;6.60;;;5.90;99.90;;;;;;5031748;28;20113;-56
2023/01/15 09:37:39;;;;;;;12.82;7.20;;;5.90;99.90;;;;;;5034330;28;20112;-57
2023/01/15 09:40:08;;;;;;;8.70;6.60;;;6.00;99.90;;;;;;5034692;28;20049;-58
2023/01/15 09:42:44;;;;;;;12.80;7.07;;;5.90;99.90;;;;;;5033896;28;20026;-58
2023/01/15 09:45:19;;;;;;;9.38;6.25;;;5.80;99.90;;;;;;5034083;28;20111;-55
2023/01/15 09:48:13;;;;;;;27.05;17.05;;;5.80;99.90;;;;;;5034092;28;20497;-56
2023/01/15 09:50:51;;;;;;;12.25;8.60;;;5.80;99.90;;;;;;5034315;28;20032;-58
2023/01/15 09:53:49;;;;;;;16.13;10.25;;;5.80;99.90;;;;;;5033310;28;20025;-57
2023/01/15 09:56:24;;;;;;;24.38;13.30;;;6.00;99.90;;;;;;5033442;28;20113;-54
2023/01/15 09:58:51;;;;;;;16.25;10.05;;;6.00;99.90;;;;;;5031350;28;20401;-56
2023/01/15 10:01:23;;;;;;;45.17;26.90;;;6.10;99.90;;;;;;5034248;28;20025;-58
2023/01/15 10:04:38;;;;;;;129.82;67.78;;;6.20;99.90;;;;;;5034014;28;20041;-58
2023/01/15 10:07:36;;;;;;;;;;;6.40;99.90;;;;;;5031637;28;20128;-54
2023/01/15 10:10:16;;;;;;;34.13;13.20;;;6.60;99.90;;;;;;5012163;28;19970;-60
2023/01/15 10:12:52;;;;;;;8.93;6.35;;;6.70;99.90;;;;;;5036527;28;20376;-58
2023/01/15 10:15:42;;;;;;;15.52;8.60;;;6.90;99.90;;;;;;5036716;28;20029;-58
2023/01/15 10:18:21;;;;;;;12.75;7.32;;;7.00;99.90;;;;;;5036612;28;20045;-59
2023/01/15 10:20:56;;;;;;;67.40;34.17;;;7.00;99.90;;;;;;5036225;28;20029;-59
2023/01/15 10:23:37;;;;;;;11.10;7.85;;;7.00;99.90;;;;;;5033547;28;20100;-57
2023/01/15 10:26:22;;;;;;;18.27;10.93;;;7.20;99.90;;;;;;5049508;28;20077;-56
2023/01/15 10:29:02;;;;;;;11.45;6.85;;;7.10;99.90;;;;;;5034454;28;20512;-57
2023/01/15 10:31:44;;;;;;;9.70;7.03;;;7.00;99.90;;;;;;5033360;28;20025;-56
2023/01/15 10:34:48;;;;;;;7.90;6.80;;;7.00;99.90;;;;;;5032196;28;20056;-55
2023/01/15 10:37:30;;;;;;;15.48;8.43;;;7.00;99.90;;;;;;5032743;28;20030;-55
2023/01/15 10:40:23;;;;;;;13.95;8.80;;;7.10;99.90;;;;;;5025063;28;20030;-57
2023/01/15 10:42:54;;;;;;;11.48;7.60;;;7.10;99.90;;;;;;5033442;28;20030;-58
2023/01/15 10:45:52;;;;;;;11.13;8.77;;;7.10;99.90;;;;;;5032147;28;20052;-57
2023/01/15 10:48:29;;;;;;;13.98;10.98;;;7.10;99.90;;;;;;5032041;28;20034;-57
2023/01/15 10:50:58;;;;;;;13.63;9.80;;;7.20;99.90;;;;;;5033003;28;20408;-52
2023/01/15 10:53:43;;;;;;;15.90;12.43;;;7.10;99.90;;;;;;5032438;28;20025;-57
2023/01/15 10:56:20;;;;;;;13.55;9.93;;;7.10;99.90;;;;;;5031939;28;20017;-56
2023/01/15 10:58:53;;;;;;;13.07;9.23;;;7.20;99.90;;;;;;5030614;28;20045;-57
2023/01/15 11:01:22;;;;;;;12.35;8.10;;;7.10;99.90;;;;;;5032679;28;20549;-58
2023/01/15 11:03:48;;;;;;;10.93;8.02;;;7.20;99.90;;;;;;5031972;28;20037;-56
2023/01/15 11:06:19;;;;;;;11.45;8.32;;;7.10;99.90;;;;;;5032233;28;20044;-58
2023/01/15 11:08:51;;;;;;;10.10;6.03;;;7.10;99.90;;;;;;5032076;28;20037;-54
2023/01/15 11:19:37;;;;;;;18.65;10.30;;;7.10;99.90;;;;;;5015196;28;20108;-56
2023/01/15 11:22:10;;;;;;;12.45;8.68;;;7.00;99.90;;;;;;5003783;28;20026;-52
2023/01/15 11:24:43;;;;;;;12.07;8.02;;;7.10;99.90;;;;;;5002382;28;20026;-52
2023/01/15 11:27:18;;;;;;;10.10;6.50;;;7.20;99.90;;;;;;5005860;28;20103;-56
2023/01/15 11:29:45;;;;;;;8.75;6.80;;;7.30;99.90;;;;;;5004326;28;20033;-54
2023/01/15 11:32:32;;;;;;;10.40;6.43;;;7.30;99.90;;;;;;5001819;28;20044;-52
2023/01/15 11:35:23;;;;;;;9.65;7.30;;;7.20;99.90;;;;;;5003473;28;20030;-54
2023/01/15 11:37:49;;;;;;;11.55;8.35;;;7.10;99.90;;;;;;5003966;28;20148;-55
2023/01/15 11:52:12;;;;;;;10.18;6.70;;;7.20;99.90;;;;;;5005903;28;20369;-49
2023/01/15 11:54:48;;;;;;;9.32;6.28;;;7.30;99.90;;;;;;5007630;28;20040;-56
2023/01/15 11:57:27;;;;;;;8.57;6.40;;;7.30;99.90;;;;;;5005506;28;20516;-52
2023/01/15 11:59:53;;;;;;;14.05;7.70;;;7.40;99.90;;;;;;5007382;28;20029;-52
2023/01/15 12:02:48;;;;;;;8.68;7.35;;;7.40;99.90;;;;;;5005938;28;20033;-54
2023/01/15 12:05:34;;;;;;;9.05;7.10;;;7.30;99.90;;;;;;5003243;28;20091;-55
2023/01/15 12:08:24;;;;;;;10.10;7.03;;;7.30;99.90;;;;;;5019951;28;20079;-54
2023/01/15 12:11:05;;;;;;;10.77;7.00;;;7.20;99.90;;;;;;5020169;28;20034;-52
2023/01/15 12:14:26;;;;;;;10.45;7.10;;;7.20;99.90;;;;;;5019321;28;20033;-56
2023/01/15 12:17:01;;;;;;;9.63;6.43;;;7.20;99.90;;;;;;4990631;28;20095;-55
2023/01/15 12:19:36;;;;;;;8.57;6.63;;;7.40;99.90;;;;;;5020255;28;20059;-56
2023/01/15 12:22:02;;;;;;;7.32;5.15;;;7.30;99.90;;;;;;5019051;28;20056;-57
2023/01/15 12:24:40;;;;;;;3.33;3.03;;;7.50;99.90;;;;;;4999600;28;20510;-53
2023/01/15 12:27:35;;;;;;;2.35;1.90;;;8.20;99.90;;;;;;5019377;28;20044;-55
2023/01/15 12:30:22;;;;;;;2.28;2.08;;;8.80;99.90;;;;;;5019640;28;20048;-56
2023/01/15 12:33:08;;;;;;;4.38;2.05;;;9.20;99.90;;;;;;5017585;28;20477;-54
2023/01/15 12:35:41;;;;;;;1.73;1.63;;;9.20;99.90;;;;;;5020279;28;20052;-54
2023/01/15 12:38:14;;;;;;;2.85;2.55;;;9.30;99.90;;;;;;5020485;28;20029;-56
2023/01/15 12:41:00;;;;;;;10.67;6.53;;;9.20;99.90;;;;;;5018244;28;22544;-55
2023/01/15 12:46:28;;;;;;;5.93;4.35;;;9.00;99.90;;;;;;5020397;28;20119;-54
2023/01/15 12:49:12;;;;;;;9.05;4.90;;;8.90;99.90;;;;;;5020253;28;20049;-53
2023/01/15 12:52:01;;;;;;;7.03;4.53;;;8.70;99.90;;;;;;5020721;28;20159;-54
2023/01/15 12:54:40;;;;;;;4.88;3.63;;;8.40;99.90;;;;;;5020563;28;20032;-56
2023/01/15 12:57:17;;;;;;;3.25;2.95;;;8.00;99.90;;;;;;5020298;28;20029;-57
2023/01/15 13:00:02;;;;;;;4.13;2.83;;;7.80;99.90;;;;;;5006980;28;20041;-57
2023/01/15 13:02:51;;;;;;;9.23;5.07;;;7.60;99.90;;;;;;5000648;28;20037;-49
2023/01/15 13:05:27;;;;;;;5.25;3.67;;;7.30;99.90;;;;;;5000902;28;20036;-54
2023/01/15 13:08:31;;;;;;;10.05;5.43;;;7.20;99.90;;;;;;5000675;28;20061;-56
2023/01/15 13:10:56;;;;;;;9.90;4.88;;;7.10;99.90;;;;;;5002681;28;20022;-53
2023/01/15 13:13:32;;;;;;;2.10;2.00;;;7.10;99.90;;;;;;5004885;28;20034;-56
2023/01/15 13:16:19;;;;;;;8.55;5.35;;;7.10;99.90;;;;;;5004584;28;20084;-53
2023/01/15 13:19:20;;;;;;;6.43;4.82;;;6.90;99.90;;;;;;5004151;28;20428;-55
2023/01/15 13:21:51;;;;;;;4.05;3.20;;;6.80;99.90;;;;;;4982396;28;20100;-53
2023/01/15 13:24:41;;;;;;;2.60;2.40;;;6.70;99.90;;;;;;5004783;28;20116;-55
2023/01/15 13:27:26;;;;;;;54.67;20.33;;;6.60;99.90;;;;;;5004033;28;20113;-52
2023/01/15 13:30:32;;;;;;;1.40;1.40;;;6.50;99.90;;;;;;5004026;28;20090;-54
2023/01/15 13:33:23;;;;;;;1.40;1.30;;;6.30;99.90;;;;;;5002394;28;20046;-56
2023/01/15 13:35:59;;;;;;;1.58;1.50;;;6.20;99.90;;;;;;5003947;28;20176;-54
2023/01/15 13:38:27;;;;;;;1.75;1.65;;;6.00;99.90;;;;;;5004518;28;20036;-53
2023/01/15 13:40:56;;;;;;;1.80;1.70;;;6.00;99.90;;;;;;5003618;28;20640;-54
2023/01/15 13:43:35;;;;;;;1.70;1.60;;;5.90;99.90;;;;;;5004089;28;20038;-54
2023/01/15 13:46:04;;;;;;;1.60;1.50;;;5.90;99.90;;;;;;5003926;28;20064;-53
2023/01/15 13:48:40;;;;;;;1.90;1.80;;;5.70;99.90;;;;;;5003867;28;20041;-57
2023/01/15 13:51:29;;;;;;;1.55;1.50;;;5.70;99.90;;;;;;5004276;28;20022;-53
2023/01/15 13:53:58;;;;;;;1.45;1.45;;;5.70;99.90;;;;;;5003124;28;20038;-53
2023/01/15 13:56:35;;;;;;;1.70;1.60;;;5.70;99.90;;;;;;5003821;28;20018;-56
2023/01/15 13:59:04;;;;;;;5.40;4.15;;;5.60;99.90;;;;;;5003417;28;20477;-54
2023/01/15 14:01:29;;;;;;;3.42;2.67;;;5.60;99.90;;;;;;5003538;28;20026;-56
2023/01/15 14:03:58;;;;;;;1.70;1.60;;;5.50;99.90;;;;;;5004090;28;20110;-55
2023/01/15 14:06:37;;;;;;;10.10;5.90;;;5.50;99.90;;;;;;5003517;28;20355;-54
2023/01/15 14:09:04;;;;;;;2.85;2.35;;;5.40;99.90;;;;;;5002740;28;20437;-56